createdAt,value
2017-12-08T00:01:51.009Z,0
2017-12-08T00:11:51.272Z,0
2017-12-08T00:21:50.994Z,0
2017-12-08T00:31:51.068Z,0
2017-12-08T00:41:51.040Z,0
2017-12-08T00:51:51.011Z,0
2017-12-08T01:01:51.055Z,0
2017-12-08T01:11:50.994Z,0
2017-12-08T01:21:51.079Z,0
2017-12-08T01:31:51.048Z,0
2017-12-08T01:41:51.108Z,0
2017-12-08T01:51:51.058Z,0
2017-12-08T02:01:51.152Z,0
2017-12-08T02:11:51.085Z,0
2017-12-08T02:21:51.357Z,0
2017-12-08T02:31:51.133Z,0
2017-12-08T02:41:51.090Z,0
2017-12-08T02:51:51.429Z,0
2017-12-08T03:01:51.104Z,0
2017-12-08T03:11:51.156Z,0
2017-12-08T03:21:51.372Z,0
2017-12-08T03:31:51.195Z,0
2017-12-08T03:41:51.125Z,0
2017-12-08T03:51:51.229Z,0
2017-12-08T04:01:51.175Z,0
2017-12-08T04:11:51.129Z,0
2017-12-08T04:21:51.248Z,0
2017-12-08T04:31:51.179Z,0
2017-12-08T04:41:51.235Z,0
2017-12-08T04:51:51.168Z,0
2017-12-08T05:01:51.254Z,0
2017-12-08T05:11:52.098Z,0
2017-12-08T05:21:51.276Z,0
2017-12-08T05:31:51.283Z,0
2017-12-08T05:41:51.295Z,0
2017-12-08T05:51:51.268Z,0
2017-12-08T06:01:51.212Z,0
2017-12-08T06:11:51.248Z,0
2017-12-08T06:21:51.250Z,0
2017-12-08T06:31:51.393Z,0
2017-12-08T06:41:51.414Z,0
2017-12-08T06:51:51.395Z,8
2017-12-08T07:01:51.280Z,20
2017-12-08T07:11:51.343Z,68
2017-12-08T07:21:51.332Z,156
2017-12-08T07:31:51.581Z,340
2017-12-08T07:41:51.415Z,572
2017-12-08T07:51:51.319Z,896
2017-12-08T08:01:51.406Z,1092
2017-12-08T08:11:51.291Z,924
2017-12-08T08:21:51.470Z,2148
2017-12-08T08:31:51.440Z,5276
2017-12-08T08:41:51.440Z,2020
2017-12-08T08:51:52.497Z,2900
2017-12-08T09:01:51.499Z,2060
2017-12-08T09:11:52.553Z,2376
2017-12-08T09:21:51.448Z,2964
2017-12-08T09:31:51.398Z,968
2017-12-08T09:41:51.452Z,1276
2017-12-08T09:51:51.453Z,1536
2017-12-08T10:01:51.486Z,2760
2017-12-08T10:11:51.437Z,2160
2017-12-08T10:21:51.415Z,1536
2017-12-08T10:31:51.486Z,836
2017-12-08T10:41:51.677Z,1448
2017-12-08T10:51:51.566Z,2220
2017-12-08T11:01:51.576Z,2720
2017-12-08T11:11:51.531Z,2040
2017-12-08T11:23:17.652Z,1568
2017-12-08T11:33:17.594Z,2276
2017-12-08T11:43:17.813Z,4032
2017-12-08T11:53:17.706Z,3916
2017-12-08T12:03:17.668Z,5432
2017-12-08T12:13:17.659Z,3676
2017-12-08T12:23:17.761Z,2048
2017-12-08T12:33:17.665Z,2192
2017-12-08T12:43:17.922Z,920
2017-12-08T12:53:17.723Z,3568
2017-12-08T13:03:17.675Z,4416
2017-12-08T13:13:17.729Z,1044
2017-12-08T13:23:17.718Z,1360
2017-12-08T13:33:17.749Z,1072
2017-12-08T13:43:17.719Z,3060
2017-12-08T13:53:17.771Z,2716
2017-12-08T14:03:18.595Z,1912
2017-12-08T14:13:17.801Z,1600
2017-12-08T14:23:17.835Z,1056
2017-12-08T14:33:17.736Z,812
2017-12-08T14:43:17.800Z,648
2017-12-08T14:53:17.755Z,568
2017-12-08T15:03:17.805Z,268
2017-12-08T15:13:24.160Z,136
2017-12-08T15:23:17.911Z,100
2017-12-08T15:33:17.975Z,36
2017-12-08T15:43:17.836Z,8
2017-12-08T15:53:17.850Z,4
2017-12-08T16:03:17.897Z,4
2017-12-08T16:13:18.190Z,0
2017-12-08T16:23:17.921Z,0
2017-12-08T16:33:17.851Z,0
2017-12-08T16:43:17.983Z,0
2017-12-08T16:53:17.874Z,0
2017-12-08T17:03:17.961Z,0
2017-12-08T17:13:17.966Z,0
2017-12-08T17:23:17.883Z,0
2017-12-08T17:33:18.007Z,0
2017-12-08T17:43:17.966Z,0
2017-12-08T17:53:26.270Z,0
2017-12-08T18:03:18.088Z,0
2017-12-08T18:13:18.128Z,0
2017-12-08T18:23:18.232Z,0
2017-12-08T18:33:18.123Z,0
2017-12-08T18:43:18.248Z,0
2017-12-08T18:53:40.458Z,4
2017-12-08T19:03:18.144Z,0
2017-12-08T19:13:18.284Z,0
2017-12-08T19:23:18.225Z,0
2017-12-08T19:33:21.599Z,4
2017-12-08T19:43:18.181Z,4
2017-12-08T19:53:18.082Z,0
2017-12-08T20:03:59.558Z,0
2017-12-08T20:13:25.150Z,0
2017-12-08T20:23:18.509Z,0
2017-12-08T20:33:18.146Z,0
2017-12-08T20:43:18.215Z,0
2017-12-08T20:53:18.274Z,0
2017-12-08T21:03:18.803Z,0
2017-12-08T21:13:18.450Z,0
2017-12-08T21:23:18.508Z,0
2017-12-08T21:33:18.784Z,0
2017-12-08T21:43:18.561Z,0
2017-12-08T21:53:18.804Z,0
2017-12-08T22:03:18.171Z,0
2017-12-08T22:13:18.131Z,0
2017-12-08T22:23:18.517Z,0
2017-12-08T22:33:18.333Z,0
2017-12-08T22:43:18.273Z,0
2017-12-08T22:53:18.206Z,0
2017-12-08T23:03:18.192Z,0
2017-12-08T23:13:18.139Z,0
2017-12-08T23:23:18.223Z,0
2017-12-08T23:33:18.189Z,0
2017-12-08T23:43:18.296Z,0
2017-12-08T23:53:18.752Z,0
